Holytown, United Kingdom
Current Conditions -  °F | °C
As of 8:50 PM on Sunday 21 Dec 2014 (Local Time) from EGPF Reporting Station
Moderate Rain Moderate Rain  
Wind Chill: 52°   Ceiling: 1200
Heat Index: 52°   Visibility: 2.6mi
Dew Point: 50°   Wind: 20mph
Humidity: 94%   Direction: 250°WSW
Pressure: 29.65"   Gusts: NA
Location:  55.82°N, 3.97°W
Report Text: EGPF 212050Z AUTO 25017KT 4200 RA BKN012/// //////CB 11/10 Q1004
Loading
Personal Weather Stations






























Interactive Weather Map New forecast layout! Learn more

10-Day Weather Forecast

Advertisements
Track Severe Weather on mobile